sensor_id;sensor_type;location;lat;lon;timestamp;pressure;altitude;pressure_sealevel;temperature;humidity
21129;BME280;10722;51.910;8.352;2023-05-11T00:02:11;100694.13;;;13.29;100.00
21129;BME280;10722;51.910;8.352;2023-05-11T00:04:56;100695.88;;;13.31;100.00
21129;BME280;10722;51.910;8.352;2023-05-11T00:07:41;100686.31;;;13.26;100.00
21129;BME280;10722;51.910;8.352;2023-05-11T00:10:28;100689.75;;;13.21;100.00
21129;BME280;10722;51.910;8.352;2023-05-11T00:13:13;100684.53;;;13.20;100.00
21129;BME280;10722;51.910;8.352;2023-05-11T00:15:58;100679.22;;;13.03;100.00
21129;BME280;10722;51.910;8.352;2023-05-11T00:18:43;100686.16;;;13.06;100.00
21129;BME280;10722;51.910;8.352;2023-05-11T00:21:29;100685.28;;;13.02;100.00
21129;BME280;10722;51.910;8.352;2023-05-11T00:24:14;100685.28;;;13.02;100.00
21129;BME280;10722;51.910;8.352;2023-05-11T00:26:59;100682.69;;;13.02;100.00
21129;BME280;10722;51.910;8.352;2023-05-11T00:29:45;100679.25;;;13.05;100.00
21129;BME280;10722;51.910;8.352;2023-05-11T00:32:30;100682.75;;;13.11;100.00
21129;BME280;10722;51.910;8.352;2023-05-11T00:35:15;100684.50;;;13.14;100.00
21129;BME280;10722;51.910;8.352;2023-05-11T00:38:01;100676.66;;;13.08;100.00
21129;BME280;10722;51.910;8.352;2023-05-11T00:40:47;100678.38;;;13.01;100.00
21129;BME280;10722;51.910;8.352;2023-05-11T00:43:33;100682.69;;;13.02;100.00
21129;BME280;10722;51.910;8.352;2023-05-11T00:46:19;100675.84;;;13.13;100.00
21129;BME280;10722;51.910;8.352;2023-05-11T00:49:04;100674.94;;;13.04;100.00
21129;BME280;10722;51.910;8.352;2023-05-11T00:51:50;100682.72;;;13.05;100.00
21129;BME280;10722;51.910;8.352;2023-05-11T00:54:35;100682.78;;;13.17;100.00
21129;BME280;10722;51.910;8.352;2023-05-11T00:57:20;100687.13;;;13.20;100.00
21129;BME280;10722;51.910;8.352;2023-05-11T01:00:06;100679.31;;;13.15;100.00
21129;BME280;10722;51.910;8.352;2023-05-11T01:02:52;100684.53;;;13.23;100.00
21129;BME280;10722;51.910;8.352;2023-05-11T01:05:43;100687.19;;;13.26;100.00
21129;BME280;10722;51.910;8.352;2023-05-11T01:11:48;100683.53;;;12.99;100.00
21129;BME280;10722;51.910;8.352;2023-05-11T01:14:42;100680.91;;;12.93;100.00
21129;BME280;10722;51.910;8.352;2023-05-11T01:17:51;100680.84;;;12.89;100.00
21129;BME280;10722;51.910;8.352;2023-05-11T01:20:41;100686.13;;;12.99;100.00
21129;BME280;10722;51.910;8.352;2023-05-11T01:30:26;100692.16;;;12.94;100.00
21129;BME280;10722;51.910;8.352;2023-05-11T01:33:13;100695.72;;;13.04;100.00
21129;BME280;10722;51.910;8.352;2023-05-11T01:36:03;100693.13;;;13.07;100.00
21129;BME280;10722;51.910;8.352;2023-05-11T01:38:49;100700.91;;;13.04;100.00
21129;BME280;10722;51.910;8.352;2023-05-11T01:41:38;100705.16;;;12.95;100.00
21129;BME280;10722;51.910;8.352;2023-05-11T01:44:25;100698.25;;;12.99;100.00
21129;BME280;10722;51.910;8.352;2023-05-11T01:47:14;100698.28;;;13.05;100.00
21129;BME280;10722;51.910;8.352;2023-05-11T01:50:03;100710.44;;;13.08;100.00
21129;BME280;10722;51.910;8.352;2023-05-11T01:52:50;100706.91;;;12.98;100.00
21129;BME280;10722;51.910;8.352;2023-05-11T01:55:36;100704.31;;;12.99;100.00
21129;BME280;10722;51.910;8.352;2023-05-11T01:58:24;100707.81;;;13.06;100.00
21129;BME280;10722;51.910;8.352;2023-05-11T02:01:13;100707.81;;;13.06;100.00
21129;BME280;10722;51.910;8.352;2023-05-11T02:04:01;100713.00;;;13.03;100.00
21129;BME280;10722;51.910;8.352;2023-05-11T02:06:48;100717.41;;;13.15;100.00
21129;BME280;10722;51.910;8.352;2023-05-11T02:09:35;100720.91;;;13.18;100.00
21129;BME280;10722;51.910;8.352;2023-05-11T02:12:22;100713.97;;;13.16;100.00
21129;BME280;10722;51.910;8.352;2023-05-11T02:15:10;100710.50;;;13.15;100.00
21129;BME280;10722;51.910;8.352;2023-05-11T02:17:55;100716.53;;;13.10;100.00
21129;BME280;10722;51.910;8.352;2023-05-11T02:20:44;100715.59;;;13.06;100.00
21129;BME280;10722;51.910;8.352;2023-05-11T02:23:31;100711.28;;;13.05;100.00
21129;BME280;10722;51.910;8.352;2023-05-11T02:26:17;100709.47;;;12.93;100.00
21129;BME280;10722;51.910;8.352;2023-05-11T02:29:02;100709.50;;;12.99;100.00
21129;BME280;10722;51.910;8.352;2023-05-11T02:31:48;100716.53;;;13.10;100.00
21129;BME280;10722;51.910;8.352;2023-05-11T02:34:41;100720.84;;;13.11;100.00
21129;BME280;10722;51.910;8.352;2023-05-11T02:37:29;100717.31;;;13.01;100.00
21129;BME280;10722;51.910;8.352;2023-05-11T02:40:19;100707.63;;;12.78;100.00
21129;BME280;10722;51.910;8.352;2023-05-11T02:43:09;100709.31;;;12.75;100.00
21129;BME280;10722;51.910;8.352;2023-05-11T02:45:59;100711.03;;;12.74;100.00
21129;BME280;10722;51.910;8.352;2023-05-11T02:48:49;100714.50;;;12.75;100.00
21129;BME280;10722;51.910;8.352;2023-05-11T02:51:38;100714.53;;;12.78;100.00
21129;BME280;10722;51.910;8.352;2023-05-11T02:54:25;100722.25;;;12.69;100.00
21129;BME280;10722;51.910;8.352;2023-05-11T02:57:11;100727.31;;;12.53;100.00
21129;BME280;10722;51.910;8.352;2023-05-11T02:59:57;100719.47;;;12.49;100.00
21129;BME280;10722;51.910;8.352;2023-05-11T03:02:42;100721.28;;;12.57;100.00
21129;BME280;10722;51.910;8.352;2023-05-11T03:05:27;100723.88;;;12.57;100.00
21129;BME280;10722;51.910;8.352;2023-05-11T03:08:12;100718.72;;;12.62;100.00
21129;BME280;10722;51.910;8.352;2023-05-11T03:10:58;100724.84;;;12.69;100.00
21129;BME280;10722;51.910;8.352;2023-05-11T03:13:43;100728.28;;;12.65;100.00
21129;BME280;10722;51.910;8.352;2023-05-11T03:16:30;100736.81;;;12.54;100.00
21129;BME280;10722;51.910;8.352;2023-05-11T03:19:16;100735.94;;;12.51;100.00
21129;BME280;10722;51.910;8.352;2023-05-11T03:22:03;100735.09;;;12.53;100.00
21129;BME280;10722;51.910;8.352;2023-05-11T03:24:49;100727.28;;;12.50;100.00
21129;BME280;10722;51.910;8.352;2023-05-11T03:27:35;100726.47;;;12.57;100.00
21129;BME280;10722;51.910;8.352;2023-05-11T03:30:21;100723.75;;;12.45;100.00
21129;BME280;10722;51.910;8.352;2023-05-11T03:33:07;100737.69;;;12.53;100.00
21129;BME280;10722;51.910;8.352;2023-05-11T03:35:53;100729.03;;;12.54;100.00
21129;BME280;10722;51.910;8.352;2023-05-11T03:38:39;100735.19;;;12.64;100.00
21129;BME280;10722;51.910;8.352;2023-05-11T03:41:26;100744.69;;;12.62;100.00
21129;BME280;10722;51.910;8.352;2023-05-11T03:44:12;100740.25;;;12.50;100.00
21129;BME280;10722;51.910;8.352;2023-05-11T03:46:59;100741.94;;;12.48;100.00
21129;BME280;10722;51.910;8.352;2023-05-11T03:49:45;100741.09;;;12.49;100.00
21129;BME280;10722;51.910;8.352;2023-05-11T03:52:30;100735.91;;;12.48;100.00
21129;BME280;10722;51.910;8.352;2023-05-11T03:55:16;100732.41;;;12.46;100.00
21129;BME280;10722;51.910;8.352;2023-05-11T03:58:05;100738.47;;;12.45;100.00
21129;BME280;10722;51.910;8.352;2023-05-11T04:00:51;100740.16;;;12.44;100.00
21129;BME280;10722;51.910;8.352;2023-05-11T04:03:50;100748.22;;;12.72;100.00
21129;BME280;10722;51.910;8.352;2023-05-11T04:06:37;100739.50;;;12.62;100.00
21129;BME280;10722;51.910;8.352;2023-05-11T04:09:22;100747.16;;;12.51;100.00
21129;BME280;10722;51.910;8.352;2023-05-11T04:12:07;100746.28;;;12.48;100.00
21129;BME280;10722;51.910;8.352;2023-05-11T04:14:52;100746.28;;;12.49;100.00
21129;BME280;10722;51.910;8.352;2023-05-11T04:17:38;100745.44;;;12.50;100.00
21129;BME280;10722;51.910;8.352;2023-05-11T04:20:23;100748.94;;;12.54;100.00
21129;BME280;10722;51.910;8.352;2023-05-11T04:23:08;100750.63;;;12.50;100.00
21129;BME280;10722;51.910;8.352;2023-05-11T04:25:55;100754.94;;;12.48;100.00
21129;BME280;10722;51.910;8.352;2023-05-11T04:28:40;100754.19;;;12.63;100.00
21129;BME280;10722;51.910;8.352;2023-05-11T04:31:25;100754.31;;;12.74;100.00
21129;BME280;10722;51.910;8.352;2023-05-11T04:34:10;100755.22;;;12.81;100.00
21129;BME280;10722;51.910;8.352;2023-05-11T04:36:55;100766.53;;;12.84;100.00
21129;BME280;10722;51.910;8.352;2023-05-11T04:39:40;100763.94;;;12.89;100.00
21129;BME280;10722;51.910;8.352;2023-05-11T04:42:25;100765.56;;;12.77;100.00
21129;BME280;10722;51.910;8.352;2023-05-11T04:45:10;100755.31;;;12.91;100.00
21129;BME280;10722;51.910;8.352;2023-05-11T04:47:55;100763.97;;;12.90;100.00
21129;BME280;10722;51.910;8.352;2023-05-11T04:50:40;100767.44;;;12.91;100.00
21129;BME280;10722;51.910;8.352;2023-05-11T04:53:25;100764.81;;;12.89;100.00
21129;BME280;10722;51.910;8.352;2023-05-11T04:56:10;100760.47;;;12.85;100.00
21129;BME280;10722;51.910;8.352;2023-05-11T04:58:55;100759.59;;;12.85;100.00
21129;BME280;10722;51.910;8.352;2023-05-11T05:01:40;100763.19;;;13.02;100.00
21129;BME280;10722;51.910;8.352;2023-05-11T05:04:26;100770.16;;;13.06;100.00
21129;BME280;10722;51.910;8.352;2023-05-11T05:07:11;100766.72;;;13.09;100.00
21129;BME280;10722;51.910;8.352;2023-05-11T05:09:57;100770.22;;;13.14;100.00
21129;BME280;10722;51.910;8.352;2023-05-11T05:12:41;100764.16;;;13.13;100.00
21129;BME280;10722;51.910;8.352;2023-05-11T05:15:27;100760.72;;;13.20;100.00
21129;BME280;10722;51.910;8.352;2023-05-11T05:18:12;100770.34;;;13.26;100.00
21129;BME280;10722;51.910;8.352;2023-05-11T05:20:58;100767.72;;;13.24;100.00
21129;BME280;10722;51.910;8.352;2023-05-11T05:23:43;100768.63;;;13.31;100.00
21129;BME280;10722;51.910;8.352;2023-05-11T05:26:28;100770.41;;;13.32;100.00
21129;BME280;10722;51.910;8.352;2023-05-11T05:29:14;100770.38;;;13.29;100.00
21129;BME280;10722;51.910;8.352;2023-05-11T05:31:58;100771.94;;;13.15;100.00
21129;BME280;10722;51.910;8.352;2023-05-11T05:34:44;100766.72;;;13.09;100.00
21129;BME280;10722;51.910;8.352;2023-05-11T05:37:29;100776.31;;;13.19;100.00
21129;BME280;10722;51.910;8.352;2023-05-11T05:40:14;100771.13;;;13.19;100.00
21129;BME280;10722;51.910;8.352;2023-05-11T05:42:59;100770.31;;;13.24;100.00
21129;BME280;10722;51.910;8.352;2023-05-11T05:45:44;100772.88;;;13.23;100.00
21129;BME280;10722;51.910;8.352;2023-05-11T05:48:30;100770.22;;;13.14;100.00
21129;BME280;10722;51.910;8.352;2023-05-11T05:51:15;100773.72;;;13.19;100.00
21129;BME280;10722;51.910;8.352;2023-05-11T05:54:00;100775.50;;;13.24;100.00
21129;BME280;10722;51.910;8.352;2023-05-11T05:56:46;100779.84;;;13.24;100.00
21129;BME280;10722;51.910;8.352;2023-05-11T05:59:31;100778.16;;;13.28;100.00
21129;BME280;10722;51.910;8.352;2023-05-11T06:02:16;100771.16;;;13.25;100.00
21129;BME280;10722;51.910;8.352;2023-05-11T06:05:01;100775.50;;;13.24;100.00
21129;BME280;10722;51.910;8.352;2023-05-11T06:07:46;100775.56;;;13.31;100.00
21129;BME280;10722;51.910;8.352;2023-05-11T06:10:51;100785.13;;;13.33;100.00
21129;BME280;10722;51.910;8.352;2023-05-11T06:13:36;100776.53;;;13.45;100.00
21129;BME280;10722;51.910;8.352;2023-05-11T06:16:21;100773.03;;;13.35;100.00
21129;BME280;10722;51.910;8.352;2023-05-11T06:19:07;100768.72;;;13.42;100.00
21129;BME280;10722;51.910;8.352;2023-05-11T06:21:52;100764.47;;;13.52;100.00
21129;BME280;10722;51.910;8.352;2023-05-11T06:24:37;100767.13;;;13.61;100.00
21129;BME280;10722;51.910;8.352;2023-05-11T06:27:22;100767.13;;;13.64;100.00
21129;BME280;10722;51.910;8.352;2023-05-11T06:30:08;100767.13;;;13.67;100.00
21129;BME280;10722;51.910;8.352;2023-05-11T06:32:53;100767.16;;;13.73;100.00
21129;BME280;10722;51.910;8.352;2023-05-11T06:35:39;100762.78;;;13.64;100.00
21129;BME280;10722;51.910;8.352;2023-05-11T06:38:24;100751.56;;;13.73;100.00
21129;BME280;10722;51.910;8.352;2023-05-11T06:41:09;100753.25;;;13.65;100.00
21129;BME280;10722;51.910;8.352;2023-05-11T06:43:54;100754.16;;;13.73;100.00
21129;BME280;10722;51.910;8.352;2023-05-11T06:46:40;100748.16;;;13.86;100.00
21129;BME280;10722;51.910;8.352;2023-05-11T06:49:25;100749.91;;;13.94;100.00
21129;BME280;10722;51.910;8.352;2023-05-11T06:52:10;100749.94;;;13.98;100.00
21129;BME280;10722;51.910;8.352;2023-05-11T06:54:56;100750.81;;;13.91;100.00
21129;BME280;10722;51.910;8.352;2023-05-11T06:57:41;100747.25;;;13.75;100.00
21129;BME280;10722;51.910;8.352;2023-05-11T07:00:27;100742.09;;;13.83;100.00
21129;BME280;10722;51.910;8.352;2023-05-11T07:03:11;100743.81;;;13.82;100.00
21129;BME280;10722;51.910;8.352;2023-05-11T07:05:57;100735.16;;;13.88;100.00
21129;BME280;10722;51.910;8.352;2023-05-11T07:08:42;100735.19;;;13.93;100.00
21129;BME280;10722;51.910;8.352;2023-05-11T07:11:29;100739.56;;;13.97;100.00
21129;BME280;10722;51.910;8.352;2023-05-11T07:14:14;100734.34;;;13.95;100.00
21129;BME280;10722;51.910;8.352;2023-05-11T07:16:59;100732.59;;;13.96;100.00
21129;BME280;10722;51.910;8.352;2023-05-11T07:19:45;100730.88;;;14.01;100.00
21129;BME280;10722;51.910;8.352;2023-05-11T07:22:30;100732.59;;;13.99;100.00
21129;BME280;10722;51.910;8.352;2023-05-11T07:25:14;100734.38;;;14.09;100.00
21129;BME280;10722;51.910;8.352;2023-05-11T07:28:00;100738.72;;;14.08;100.00
21129;BME280;10722;51.910;8.352;2023-05-11T07:30:46;100729.19;;;14.15;100.00
21129;BME280;10722;51.910;8.352;2023-05-11T07:33:31;100720.53;;;14.18;100.00
21129;BME280;10722;51.910;8.352;2023-05-11T07:36:16;100724.03;;;14.29;100.00
21129;BME280;10722;51.910;8.352;2023-05-11T07:39:02;100722.28;;;14.23;100.00
21129;BME280;10722;51.910;8.352;2023-05-11T07:41:47;100721.44;;;14.35;100.00
21129;BME280;10722;51.910;8.352;2023-05-11T07:44:32;100719.69;;;14.39;100.00
21129;BME280;10722;51.910;8.352;2023-05-11T07:47:17;100717.97;;;14.41;100.00
21129;BME280;10722;51.910;8.352;2023-05-11T07:50:02;100715.38;;;14.31;100.00
21129;BME280;10722;51.910;8.352;2023-05-11T07:52:48;100720.59;;;14.36;100.00
21129;BME280;10722;51.910;8.352;2023-05-11T07:55:33;100725.78;;;14.28;100.00
21129;BME280;10722;51.910;8.352;2023-05-11T07:58:18;100726.66;;;14.35;100.00
21129;BME280;10722;51.910;8.352;2023-05-11T08:01:03;100717.13;;;14.48;100.00
21129;BME280;10722;51.910;8.352;2023-05-11T08:03:49;100716.25;;;14.43;100.00
21129;BME280;10722;51.910;8.352;2023-05-11T08:06:34;100724.09;;;14.55;100.00
21129;BME280;10722;51.910;8.352;2023-05-11T08:09:19;100718.94;;;14.64;100.00
21129;BME280;10722;51.910;8.352;2023-05-11T08:12:05;100722.38;;;14.69;100.00
21129;BME280;10722;51.910;8.352;2023-05-11T08:14:50;100721.53;;;14.79;100.00
21129;BME280;10722;51.910;8.352;2023-05-11T08:17:35;100714.56;;;14.80;100.00
21129;BME280;10722;51.910;8.352;2023-05-11T08:20:21;100723.28;;;14.79;100.00
21129;BME280;10722;51.910;8.352;2023-05-11T08:23:07;100716.31;;;14.83;100.00
21129;BME280;10722;51.910;8.352;2023-05-11T08:25:54;100711.97;;;14.82;100.00
21129;BME280;10722;51.910;8.352;2023-05-11T08:28:39;100713.72;;;14.67;100.00
21129;BME280;10722;51.910;8.352;2023-05-11T08:31:24;100719.78;;;14.68;100.00
21129;BME280;10722;51.910;8.352;2023-05-11T08:34:08;100726.72;;;14.96;100.00
21129;BME280;10722;51.910;8.352;2023-05-11T08:37:03;100727.56;;;15.06;100.00
21129;BME280;10722;51.910;8.352;2023-05-11T08:39:49;100725.84;;;15.08;100.00
21129;BME280;10722;51.910;8.352;2023-05-11T08:42:36;100711.97;;;14.95;100.00
21129;BME280;10722;51.910;8.352;2023-05-11T08:45:24;100705.91;;;14.73;100.00
21129;BME280;10722;51.910;8.352;2023-05-11T08:48:10;100706.78;;;14.78;100.00
21129;BME280;10722;51.910;8.352;2023-05-11T08:50:55;100717.19;;;14.95;100.00
21129;BME280;10722;51.910;8.352;2023-05-11T08:53:40;100718.91;;;15.07;100.00
21129;BME280;10722;51.910;8.352;2023-05-11T08:56:28;100709.34;;;15.21;100.00
21129;BME280;10722;51.910;8.352;2023-05-11T08:59:13;100718.00;;;15.31;100.00
21129;BME280;10722;51.910;8.352;2023-05-11T09:01:59;100723.19;;;15.34;100.00
21129;BME280;10722;51.910;8.352;2023-05-11T09:04:44;100715.38;;;15.36;100.00
21129;BME280;10722;51.910;8.352;2023-05-11T09:07:35;100722.31;;;15.47;100.00
21129;BME280;10722;51.910;8.352;2023-05-11T09:10:22;100724.00;;;15.65;100.00
21129;BME280;10722;51.910;8.352;2023-05-11T09:13:08;100706.63;;;15.63;100.00
21129;BME280;10722;51.910;8.352;2023-05-11T09:15:53;100704.91;;;15.71;100.00
21129;BME280;10722;51.910;8.352;2023-05-11T09:18:52;100706.66;;;15.51;100.00
21129;BME280;10722;51.910;8.352;2023-05-11T09:21:37;100704.06;;;15.47;100.00
21129;BME280;10722;51.910;8.352;2023-05-11T09:24:23;100710.13;;;15.60;100.00
21129;BME280;10722;51.910;8.352;2023-05-11T09:27:09;100712.69;;;15.62;100.00
21129;BME280;10722;51.910;8.352;2023-05-11T09:29:54;100715.31;;;15.68;100.00
21129;BME280;10722;51.910;8.352;2023-05-11T09:32:49;100711.78;;;15.86;100.00
21129;BME280;10722;51.910;8.352;2023-05-11T09:35:35;100708.34;;;15.62;100.00
21129;BME280;10722;51.910;8.352;2023-05-11T09:38:23;100710.97;;;15.75;100.00
21129;BME280;10722;51.910;8.352;2023-05-11T09:41:09;100713.59;;;15.65;100.00
21129;BME280;10722;51.910;8.352;2023-05-11T09:44:09;100713.56;;;15.75;100.00
21129;BME280;10722;51.910;8.352;2023-05-11T09:47:12;100707.47;;;15.66;100.00
21129;BME280;10722;51.910;8.352;2023-05-11T09:49:58;100707.50;;;15.74;100.00
21129;BME280;10722;51.910;8.352;2023-05-11T09:52:49;100721.38;;;15.73;100.00
21129;BME280;10722;51.910;8.352;2023-05-11T09:55:34;100723.97;;;15.81;100.00
21129;BME280;10722;51.910;8.352;2023-05-11T09:58:20;100727.47;;;15.74;100.00
21129;BME280;10722;51.910;8.352;2023-05-11T10:01:05;100719.63;;;15.81;100.00
21129;BME280;10722;51.910;8.352;2023-05-11T10:03:52;100716.97;;;15.92;100.00
21129;BME280;10722;51.910;8.352;2023-05-11T10:06:51;100710.88;;;15.93;100.00
21129;BME280;10722;51.910;8.352;2023-05-11T10:09:37;100696.06;;;15.94;100.00
21129;BME280;10722;51.910;8.352;2023-05-11T10:12:24;100705.66;;;15.95;100.00
21129;BME280;10722;51.910;8.352;2023-05-11T10:15:10;100697.78;;;15.99;100.00
21129;BME280;10722;51.910;8.352;2023-05-11T10:17:57;100690.81;;;16.06;100.00
21129;BME280;10722;51.910;8.352;2023-05-11T10:20:46;100687.41;;;15.90;100.00
21129;BME280;10722;51.910;8.352;2023-05-11T10:23:31;100684.75;;;15.98;100.00
21129;BME280;10722;51.910;8.352;2023-05-11T10:26:17;100683.88;;;16.00;100.00
21129;BME280;10722;51.910;8.352;2023-05-11T10:29:03;100702.13;;;16.03;100.00
21129;BME280;10722;51.910;8.352;2023-05-11T10:31:49;100714.28;;;16.04;100.00
21129;BME280;10722;51.910;8.352;2023-05-11T10:34:35;100700.34;;;16.11;100.00
21129;BME280;10722;51.910;8.352;2023-05-11T10:37:20;100712.50;;;16.17;100.00
21129;BME280;10722;51.910;8.352;2023-05-11T10:40:07;100707.28;;;16.16;100.00
21129;BME280;10722;51.910;8.352;2023-05-11T10:46:20;100710.00;;;15.97;100.00
21129;BME280;10722;51.910;8.352;2023-05-11T10:52:58;100727.56;;;15.35;100.00
21129;BME280;10722;51.910;8.352;2023-05-11T11:01:44;100749.28;;;14.84;100.00
21129;BME280;10722;51.910;8.352;2023-05-11T11:04:48;100753.66;;;14.85;100.00
21129;BME280;10722;51.910;8.352;2023-05-11T11:07:59;100753.66;;;14.88;100.00
21129;BME280;10722;51.910;8.352;2023-05-11T11:10:44;100746.69;;;14.77;100.00
21129;BME280;10722;51.910;8.352;2023-05-11T11:13:56;100753.63;;;14.69;100.00
21129;BME280;10722;51.910;8.352;2023-05-11T11:20:02;100762.31;;;14.68;100.00
21129;BME280;10722;51.910;8.352;2023-05-11T11:22:48;100759.72;;;14.71;100.00
21129;BME280;10722;51.910;8.352;2023-05-11T11:25:50;100758.84;;;14.69;100.00
21129;BME280;10722;51.910;8.352;2023-05-11T11:31:40;100765.78;;;14.64;100.00
21129;BME280;10722;51.910;8.352;2023-05-11T11:37:14;100759.69;;;14.54;100.00
21129;BME280;10722;51.910;8.352;2023-05-11T11:40:00;100760.59;;;14.73;100.00
21129;BME280;10722;51.910;8.352;2023-05-11T11:43:09;100761.44;;;14.86;100.00
21129;BME280;10722;51.910;8.352;2023-05-11T11:45:59;100760.59;;;14.86;100.00
21129;BME280;10722;51.910;8.352;2023-05-11T11:48:45;100753.66;;;14.88;100.00
21129;BME280;10722;51.910;8.352;2023-05-11T11:51:34;100758.88;;;14.85;100.00
21129;BME280;10722;51.910;8.352;2023-05-11T11:54:36;100760.59;;;14.70;100.00
21129;BME280;10722;51.910;8.352;2023-05-11T12:00:19;100757.09;;;14.84;100.00
21129;BME280;10722;51.910;8.352;2023-05-11T12:03:05;100764.94;;;14.96;100.00
21129;BME280;10722;51.910;8.352;2023-05-11T12:05:55;100764.94;;;15.02;100.00
21129;BME280;10722;51.910;8.352;2023-05-11T12:08:42;100757.97;;;14.86;100.00
21129;BME280;10722;51.910;8.352;2023-05-11T12:11:28;100755.38;;;14.60;100.00
21129;BME280;10722;51.910;8.352;2023-05-11T12:14:14;100757.09;;;14.71;100.00
21129;BME280;10722;51.910;8.352;2023-05-11T12:17:02;100749.28;;;14.67;100.00
21129;BME280;10722;51.910;8.352;2023-05-11T12:19:47;100752.78;;;14.73;100.00
21129;BME280;10722;51.910;8.352;2023-05-11T12:22:35;100747.56;;;14.83;100.00
21129;BME280;10722;51.910;8.352;2023-05-11T12:25:20;100754.50;;;14.80;100.00
21129;BME280;10722;51.910;8.352;2023-05-11T12:28:06;100752.78;;;14.96;100.00
21129;BME280;10722;51.910;8.352;2023-05-11T12:30:55;100761.47;;;15.05;100.00
21129;BME280;10722;51.910;8.352;2023-05-11T12:33:48;100748.44;;;14.94;100.00
21129;BME280;10722;51.910;8.352;2023-05-11T12:36:34;100754.53;;;15.02;100.00
21129;BME280;10722;51.910;8.352;2023-05-11T12:39:24;100754.47;;;15.31;100.00
21129;BME280;10722;51.910;8.352;2023-05-11T12:42:17;100748.38;;;15.55;100.00
21129;BME280;10722;51.910;8.352;2023-05-11T12:45:04;100739.75;;;15.32;100.00
21129;BME280;10722;51.910;8.352;2023-05-11T12:47:51;100732.81;;;15.08;100.00
21129;BME280;10722;51.910;8.352;2023-05-11T12:50:41;100731.91;;;15.12;100.00
21129;BME280;10722;51.910;8.352;2023-05-11T12:53:33;100738.00;;;15.29;100.00
21129;BME280;10722;51.910;8.352;2023-05-11T12:56:19;100735.41;;;15.11;100.00
21129;BME280;10722;51.910;8.352;2023-05-11T12:59:28;100730.22;;;15.09;100.00
21129;BME280;10722;51.910;8.352;2023-05-11T13:02:19;100726.72;;;15.12;100.00
21129;BME280;10722;51.910;8.352;2023-05-11T13:05:14;100726.75;;;14.87;100.00
21129;BME280;10722;51.910;8.352;2023-05-11T13:08:03;100724.13;;;14.64;100.00
21129;BME280;10722;51.910;8.352;2023-05-11T13:10:49;100720.66;;;14.74;100.00
21129;BME280;10722;51.910;8.352;2023-05-11T13:13:34;100725.00;;;14.86;100.00
21129;BME280;10722;51.910;8.352;2023-05-11T13:19:09;100735.44;;;14.98;100.00
21129;BME280;10722;51.910;8.352;2023-05-11T13:21:54;100728.47;;;14.85;100.00
21129;BME280;10722;51.910;8.352;2023-05-11T13:24:40;100718.06;;;14.79;100.00
21129;BME280;10722;51.910;8.352;2023-05-11T13:27:25;100729.34;;;15.07;100.00
21129;BME280;10722;51.910;8.352;2023-05-11T13:30:10;100731.06;;;15.16;100.00
21129;BME280;10722;51.910;8.352;2023-05-11T13:32:56;100724.13;;;15.07;100.00
21129;BME280;10722;51.910;8.352;2023-05-11T13:35:42;100723.25;;;15.05;100.00
21129;BME280;10722;51.910;8.352;2023-05-11T13:38:28;100718.03;;;15.00;100.00
21129;BME280;10722;51.910;8.352;2023-05-11T13:41:13;100726.72;;;15.13;100.00
21129;BME280;10722;51.910;8.352;2023-05-11T13:43:59;100731.94;;;15.13;100.00
21129;BME280;10722;51.910;8.352;2023-05-11T13:46:44;100731.06;;;15.11;100.00
21129;BME280;10722;51.910;8.352;2023-05-11T13:49:29;100729.34;;;15.04;100.00
21129;BME280;10722;51.910;8.352;2023-05-11T13:52:15;100720.63;;;15.11;100.00
21129;BME280;10722;51.910;8.352;2023-05-11T13:55:00;100711.09;;;14.78;100.00
21129;BME280;10722;51.910;8.352;2023-05-11T13:57:45;100717.16;;;14.72;100.00
21129;BME280;10722;51.910;8.352;2023-05-11T14:00:31;100716.31;;;14.86;100.00
21129;BME280;10722;51.910;8.352;2023-05-11T14:03:16;100718.06;;;14.90;100.00
21129;BME280;10722;51.910;8.352;2023-05-11T14:06:01;100719.78;;;14.94;100.00
21129;BME280;10722;51.910;8.352;2023-05-11T14:08:47;100712.84;;;14.82;100.00
21129;BME280;10722;51.910;8.352;2023-05-11T14:11:32;100716.31;;;14.93;100.00
21129;BME280;10722;51.910;8.352;2023-05-11T14:14:18;100712.81;;;15.16;100.00
21129;BME280;10722;51.910;8.352;2023-05-11T14:17:04;100714.56;;;15.15;100.00
21129;BME280;10722;51.910;8.352;2023-05-11T14:19:49;100705.84;;;15.27;100.00
21129;BME280;10722;51.910;8.352;2023-05-11T14:22:34;100705.00;;;15.11;100.00
21129;BME280;10722;51.910;8.352;2023-05-11T14:25:20;100711.06;;;15.09;100.00
21129;BME280;10722;51.910;8.352;2023-05-11T14:28:05;100704.16;;;14.89;100.00
21129;BME280;10722;51.910;8.352;2023-05-11T14:30:50;100705.00;;;15.08;100.00
21129;BME280;10722;51.910;8.352;2023-05-11T14:33:35;100710.19;;;15.27;100.00
21129;BME280;10722;51.910;8.352;2023-05-11T14:36:21;100716.28;;;15.35;100.00
21129;BME280;10722;51.910;8.352;2023-05-11T14:39:06;100707.56;;;15.28;100.00
21129;BME280;10722;51.910;8.352;2023-05-11T14:41:52;100700.63;;;15.32;100.00
21129;BME280;10722;51.910;8.352;2023-05-11T14:44:36;100699.75;;;15.37;100.00
21129;BME280;10722;51.910;8.352;2023-05-11T14:47:21;100694.56;;;15.22;100.00
21129;BME280;10722;51.910;8.352;2023-05-11T14:50:08;100697.16;;;15.28;100.00
21129;BME280;10722;51.910;8.352;2023-05-11T14:52:53;100697.13;;;15.39;100.00
21129;BME280;10722;51.910;8.352;2023-05-11T14:55:39;100690.16;;;15.44;100.00
21129;BME280;10722;51.910;8.352;2023-05-11T14:58:24;100697.97;;;15.53;100.00
21129;BME280;10722;51.910;8.352;2023-05-11T15:01:09;100697.97;;;15.52;100.00